sensor_id;sensor_type;location;lat;lon;timestamp;P1;durP1;ratioP1;P2;durP2;ratioP2
72301;SDS011;60235;52.234;5.186;2022-07-23T00:00:52;7.13;;;2.20;;
72301;SDS011;60235;52.234;5.186;2022-07-23T00:03:18;5.85;;;2.10;;
72301;SDS011;60235;52.234;5.186;2022-07-23T00:05:44;6.22;;;2.17;;
72301;SDS011;60235;52.234;5.186;2022-07-23T00:08:10;6.95;;;2.22;;
72301;SDS011;60235;52.234;5.186;2022-07-23T00:10:37;6.15;;;2.03;;
72301;SDS011;60235;52.234;5.186;2022-07-23T00:13:03;6.78;;;2.30;;
72301;SDS011;60235;52.234;5.186;2022-07-23T00:15:29;6.43;;;2.22;;
72301;SDS011;60235;52.234;5.186;2022-07-23T00:17:55;5.70;;;1.88;;
72301;SDS011;60235;52.234;5.186;2022-07-23T00:20:21;6.55;;;2.08;;
72301;SDS011;60235;52.234;5.186;2022-07-23T00:22:48;5.85;;;2.22;;
72301;SDS011;60235;52.234;5.186;2022-07-23T00:25:14;5.88;;;2.15;;
72301;SDS011;60235;52.234;5.186;2022-07-23T00:27:40;7.35;;;3.00;;
72301;SDS011;60235;52.234;5.186;2022-07-23T00:30:06;8.50;;;2.90;;
72301;SDS011;60235;52.234;5.186;2022-07-23T00:32:44;10.93;;;2.75;;
72301;SDS011;60235;52.234;5.186;2022-07-23T00:35:10;7.00;;;2.60;;
72301;SDS011;60235;52.234;5.186;2022-07-23T00:37:36;7.65;;;2.42;;
72301;SDS011;60235;52.234;5.186;2022-07-23T00:40:02;7.45;;;2.65;;
72301;SDS011;60235;52.234;5.186;2022-07-23T00:42:28;5.90;;;2.55;;
72301;SDS011;60235;52.234;5.186;2022-07-23T00:44:56;7.45;;;2.55;;
72301;SDS011;60235;52.234;5.186;2022-07-23T00:47:22;6.82;;;2.53;;
72301;SDS011;60235;52.234;5.186;2022-07-23T00:49:48;7.18;;;2.30;;
72301;SDS011;60235;52.234;5.186;2022-07-23T00:52:14;7.30;;;2.20;;
72301;SDS011;60235;52.234;5.186;2022-07-23T00:54:40;5.78;;;2.40;;
72301;SDS011;60235;52.234;5.186;2022-07-23T00:57:06;6.35;;;2.03;;
72301;SDS011;60235;52.234;5.186;2022-07-23T00:59:33;10.73;;;3.15;;
72301;SDS011;60235;52.234;5.186;2022-07-23T01:01:58;28.73;;;8.18;;
72301;SDS011;60235;52.234;5.186;2022-07-23T01:04:24;14.48;;;4.50;;
72301;SDS011;60235;52.234;5.186;2022-07-23T01:06:50;12.27;;;3.97;;
72301;SDS011;60235;52.234;5.186;2022-07-23T01:09:17;14.18;;;4.55;;
72301;SDS011;60235;52.234;5.186;2022-07-23T01:11:43;13.80;;;4.28;;
72301;SDS011;60235;52.234;5.186;2022-07-23T01:14:12;11.80;;;4.10;;
72301;SDS011;60235;52.234;5.186;2022-07-23T01:16:41;11.55;;;3.85;;
72301;SDS011;60235;52.234;5.186;2022-07-23T01:19:07;8.45;;;3.38;;
72301;SDS011;60235;52.234;5.186;2022-07-23T01:21:35;9.98;;;2.92;;
72301;SDS011;60235;52.234;5.186;2022-07-23T01:24:01;9.00;;;2.90;;
72301;SDS011;60235;52.234;5.186;2022-07-23T01:26:27;5.90;;;2.15;;
72301;SDS011;60235;52.234;5.186;2022-07-23T01:28:53;8.60;;;2.78;;
72301;SDS011;60235;52.234;5.186;2022-07-23T01:31:19;7.38;;;2.80;;
72301;SDS011;60235;52.234;5.186;2022-07-23T01:33:45;6.22;;;1.83;;
72301;SDS011;60235;52.234;5.186;2022-07-23T01:36:11;8.98;;;2.30;;
72301;SDS011;60235;52.234;5.186;2022-07-23T01:38:37;5.50;;;1.88;;
72301;SDS011;60235;52.234;5.186;2022-07-23T01:41:03;6.80;;;2.15;;
72301;SDS011;60235;52.234;5.186;2022-07-23T01:43:29;7.20;;;2.38;;
72301;SDS011;60235;52.234;5.186;2022-07-23T01:45:55;8.77;;;2.08;;
72301;SDS011;60235;52.234;5.186;2022-07-23T01:48:21;6.30;;;2.15;;
72301;SDS011;60235;52.234;5.186;2022-07-23T01:50:47;7.88;;;2.42;;
72301;SDS011;60235;52.234;5.186;2022-07-23T01:53:14;6.00;;;2.20;;
72301;SDS011;60235;52.234;5.186;2022-07-23T01:55:40;6.18;;;2.05;;
72301;SDS011;60235;52.234;5.186;2022-07-23T01:58:06;7.22;;;2.13;;
72301;SDS011;60235;52.234;5.186;2022-07-23T02:00:32;6.20;;;2.17;;
72301;SDS011;60235;52.234;5.186;2022-07-23T02:02:58;5.90;;;2.22;;
72301;SDS011;60235;52.234;5.186;2022-07-23T02:05:24;6.88;;;2.45;;
72301;SDS011;60235;52.234;5.186;2022-07-23T02:07:50;8.52;;;2.42;;
72301;SDS011;60235;52.234;5.186;2022-07-23T02:10:17;5.80;;;2.17;;
72301;SDS011;60235;52.234;5.186;2022-07-23T02:12:43;7.55;;;2.30;;
72301;SDS011;60235;52.234;5.186;2022-07-23T02:15:09;8.38;;;2.22;;
72301;SDS011;60235;52.234;5.186;2022-07-23T02:17:35;5.70;;;2.30;;
72301;SDS011;60235;52.234;5.186;2022-07-23T02:20:01;6.93;;;2.10;;
72301;SDS011;60235;52.234;5.186;2022-07-23T02:22:27;6.47;;;2.40;;
72301;SDS011;60235;52.234;5.186;2022-07-23T02:24:53;7.25;;;2.42;;
72301;SDS011;60235;52.234;5.186;2022-07-23T02:27:19;7.10;;;2.55;;
72301;SDS011;60235;52.234;5.186;2022-07-23T02:29:46;7.50;;;2.22;;
72301;SDS011;60235;52.234;5.186;2022-07-23T02:32:12;5.78;;;2.42;;
72301;SDS011;60235;52.234;5.186;2022-07-23T02:34:38;7.00;;;2.65;;
72301;SDS011;60235;52.234;5.186;2022-07-23T02:37:04;6.63;;;2.10;;
72301;SDS011;60235;52.234;5.186;2022-07-23T02:39:30;7.72;;;2.35;;
72301;SDS011;60235;52.234;5.186;2022-07-23T02:41:56;8.13;;;2.38;;
72301;SDS011;60235;52.234;5.186;2022-07-23T02:44:22;7.20;;;2.42;;
72301;SDS011;60235;52.234;5.186;2022-07-23T02:46:48;5.72;;;2.10;;
72301;SDS011;60235;52.234;5.186;2022-07-23T02:49:14;7.63;;;2.22;;
72301;SDS011;60235;52.234;5.186;2022-07-23T02:51:40;8.98;;;2.58;;
72301;SDS011;60235;52.234;5.186;2022-07-23T02:54:07;7.57;;;2.60;;
72301;SDS011;60235;52.234;5.186;2022-07-23T02:56:33;5.60;;;2.25;;
72301;SDS011;60235;52.234;5.186;2022-07-23T02:58:59;5.75;;;2.00;;
72301;SDS011;60235;52.234;5.186;2022-07-23T03:01:25;6.15;;;2.13;;
72301;SDS011;60235;52.234;5.186;2022-07-23T03:03:51;8.07;;;2.25;;
72301;SDS011;60235;52.234;5.186;2022-07-23T03:06:17;4.35;;;1.63;;
72301;SDS011;60235;52.234;5.186;2022-07-23T03:08:43;5.30;;;2.10;;
72301;SDS011;60235;52.234;5.186;2022-07-23T03:11:09;7.80;;;2.15;;
72301;SDS011;60235;52.234;5.186;2022-07-23T03:16:04;5.95;;;2.33;;
72301;SDS011;60235;52.234;5.186;2022-07-23T03:18:30;10.27;;;2.08;;
72301;SDS011;60235;52.234;5.186;2022-07-23T03:20:56;5.90;;;1.88;;
72301;SDS011;60235;52.234;5.186;2022-07-23T03:23:22;5.82;;;2.30;;
72301;SDS011;60235;52.234;5.186;2022-07-23T03:25:48;5.82;;;1.88;;
72301;SDS011;60235;52.234;5.186;2022-07-23T03:28:15;5.90;;;1.92;;
72301;SDS011;60235;52.234;5.186;2022-07-23T03:30:44;6.93;;;2.33;;
72301;SDS011;60235;52.234;5.186;2022-07-23T03:33:14;7.15;;;2.42;;
72301;SDS011;60235;52.234;5.186;2022-07-23T03:35:41;5.00;;;1.88;;
72301;SDS011;60235;52.234;5.186;2022-07-23T03:38:07;7.57;;;1.95;;
72301;SDS011;60235;52.234;5.186;2022-07-23T03:40:33;5.78;;;2.08;;
72301;SDS011;60235;52.234;5.186;2022-07-23T03:42:59;8.30;;;2.20;;
72301;SDS011;60235;52.234;5.186;2022-07-23T03:45:26;5.88;;;2.22;;
72301;SDS011;60235;52.234;5.186;2022-07-23T03:47:52;7.15;;;1.92;;
72301;SDS011;60235;52.234;5.186;2022-07-23T03:50:18;5.25;;;2.15;;
72301;SDS011;60235;52.234;5.186;2022-07-23T03:52:44;4.30;;;1.80;;
72301;SDS011;60235;52.234;5.186;2022-07-23T03:55:10;6.40;;;1.85;;
72301;SDS011;60235;52.234;5.186;2022-07-23T03:57:36;7.60;;;2.15;;
72301;SDS011;60235;52.234;5.186;2022-07-23T04:00:03;4.90;;;1.95;;
72301;SDS011;60235;52.234;5.186;2022-07-23T04:02:30;7.25;;;2.33;;
72301;SDS011;60235;52.234;5.186;2022-07-23T04:04:56;6.93;;;2.40;;
72301;SDS011;60235;52.234;5.186;2022-07-23T04:07:22;6.18;;;2.10;;
72301;SDS011;60235;52.234;5.186;2022-07-23T04:09:48;6.00;;;1.90;;
72301;SDS011;60235;52.234;5.186;2022-07-23T04:12:14;6.63;;;2.13;;
72301;SDS011;60235;52.234;5.186;2022-07-23T04:14:40;9.00;;;2.20;;
72301;SDS011;60235;52.234;5.186;2022-07-23T04:17:06;6.35;;;1.98;;
72301;SDS011;60235;52.234;5.186;2022-07-23T04:19:32;6.15;;;2.03;;
72301;SDS011;60235;52.234;5.186;2022-07-23T04:21:58;6.07;;;2.22;;
72301;SDS011;60235;52.234;5.186;2022-07-23T04:24:24;8.48;;;2.25;;
72301;SDS011;60235;52.234;5.186;2022-07-23T04:26:50;7.45;;;2.40;;
72301;SDS011;60235;52.234;5.186;2022-07-23T04:29:16;10.00;;;2.25;;
72301;SDS011;60235;52.234;5.186;2022-07-23T04:31:42;6.47;;;2.10;;
72301;SDS011;60235;52.234;5.186;2022-07-23T04:34:08;6.50;;;2.17;;
72301;SDS011;60235;52.234;5.186;2022-07-23T04:36:34;6.25;;;2.17;;
72301;SDS011;60235;52.234;5.186;2022-07-23T04:39:00;6.40;;;2.10;;
72301;SDS011;60235;52.234;5.186;2022-07-23T04:41:26;6.75;;;2.17;;
72301;SDS011;60235;52.234;5.186;2022-07-23T04:43:52;5.80;;;2.53;;
72301;SDS011;60235;52.234;5.186;2022-07-23T04:46:18;5.85;;;2.08;;
72301;SDS011;60235;52.234;5.186;2022-07-23T04:48:44;5.55;;;1.95;;
72301;SDS011;60235;52.234;5.186;2022-07-23T04:51:10;7.03;;;2.30;;
72301;SDS011;60235;52.234;5.186;2022-07-23T04:53:37;5.80;;;1.90;;
72301;SDS011;60235;52.234;5.186;2022-07-23T04:56:03;5.68;;;2.10;;
72301;SDS011;60235;52.234;5.186;2022-07-23T04:58:29;6.25;;;2.30;;
72301;SDS011;60235;52.234;5.186;2022-07-23T05:00:56;5.88;;;1.90;;
72301;SDS011;60235;52.234;5.186;2022-07-23T05:03:23;5.10;;;2.22;;
72301;SDS011;60235;52.234;5.186;2022-07-23T05:05:49;7.20;;;2.22;;
72301;SDS011;60235;52.234;5.186;2022-07-23T05:08:15;6.28;;;2.08;;
72301;SDS011;60235;52.234;5.186;2022-07-23T05:10:41;5.28;;;1.98;;
72301;SDS011;60235;52.234;5.186;2022-07-23T05:13:07;5.15;;;1.70;;
72301;SDS011;60235;52.234;5.186;2022-07-23T05:15:33;5.22;;;2.30;;
72301;SDS011;60235;52.234;5.186;2022-07-23T05:17:59;5.47;;;1.80;;
72301;SDS011;60235;52.234;5.186;2022-07-23T05:20:25;5.55;;;2.00;;
72301;SDS011;60235;52.234;5.186;2022-07-23T05:22:51;5.05;;;1.90;;
72301;SDS011;60235;52.234;5.186;2022-07-23T05:25:17;5.10;;;1.90;;
72301;SDS011;60235;52.234;5.186;2022-07-23T05:27:43;6.22;;;2.00;;
72301;SDS011;60235;52.234;5.186;2022-07-23T05:30:10;6.53;;;1.90;;
72301;SDS011;60235;52.234;5.186;2022-07-23T05:32:36;7.03;;;1.80;;
72301;SDS011;60235;52.234;5.186;2022-07-23T05:35:02;5.63;;;1.98;;
72301;SDS011;60235;52.234;5.186;2022-07-23T05:37:28;6.97;;;1.83;;
72301;SDS011;60235;52.234;5.186;2022-07-23T05:39:54;6.60;;;1.92;;
72301;SDS011;60235;52.234;5.186;2022-07-23T05:42:20;6.82;;;1.60;;
72301;SDS011;60235;52.234;5.186;2022-07-23T05:44:46;5.35;;;1.50;;
72301;SDS011;60235;52.234;5.186;2022-07-23T05:47:12;4.55;;;1.60;;
72301;SDS011;60235;52.234;5.186;2022-07-23T05:49:38;6.30;;;1.70;;
72301;SDS011;60235;52.234;5.186;2022-07-23T05:52:05;5.35;;;1.52;;
72301;SDS011;60235;52.234;5.186;2022-07-23T05:54:33;5.95;;;1.45;;
72301;SDS011;60235;52.234;5.186;2022-07-23T05:56:59;6.30;;;1.60;;
72301;SDS011;60235;52.234;5.186;2022-07-23T05:59:25;5.53;;;1.60;;
72301;SDS011;60235;52.234;5.186;2022-07-23T06:01:51;7.63;;;1.70;;
72301;SDS011;60235;52.234;5.186;2022-07-23T06:04:17;5.80;;;1.55;;
72301;SDS011;60235;52.234;5.186;2022-07-23T06:06:43;4.57;;;1.63;;
72301;SDS011;60235;52.234;5.186;2022-07-23T06:09:09;5.07;;;1.67;;
72301;SDS011;60235;52.234;5.186;2022-07-23T06:11:38;4.93;;;1.27;;
72301;SDS011;60235;52.234;5.186;2022-07-23T06:14:04;5.70;;;1.48;;
72301;SDS011;60235;52.234;5.186;2022-07-23T06:16:30;4.60;;;1.38;;
72301;SDS011;60235;52.234;5.186;2022-07-23T06:18:56;6.78;;;1.70;;
72301;SDS011;60235;52.234;5.186;2022-07-23T06:21:22;7.57;;;1.50;;
72301;SDS011;60235;52.234;5.186;2022-07-23T06:23:48;5.97;;;1.55;;
72301;SDS011;60235;52.234;5.186;2022-07-23T06:26:14;4.85;;;1.42;;
72301;SDS011;60235;52.234;5.186;2022-07-23T06:28:40;6.13;;;1.38;;
72301;SDS011;60235;52.234;5.186;2022-07-23T06:31:06;7.70;;;1.65;;
72301;SDS011;60235;52.234;5.186;2022-07-23T06:33:33;4.47;;;1.23;;
72301;SDS011;60235;52.234;5.186;2022-07-23T06:35:59;7.97;;;1.52;;
72301;SDS011;60235;52.234;5.186;2022-07-23T06:38:25;4.15;;;1.20;;
72301;SDS011;60235;52.234;5.186;2022-07-23T06:40:51;3.50;;;0.98;;
72301;SDS011;60235;52.234;5.186;2022-07-23T06:43:17;4.47;;;1.33;;
72301;SDS011;60235;52.234;5.186;2022-07-23T06:45:43;4.28;;;1.00;;
72301;SDS011;60235;52.234;5.186;2022-07-23T06:48:09;2.35;;;0.90;;
72301;SDS011;60235;52.234;5.186;2022-07-23T06:50:35;5.07;;;0.90;;
72301;SDS011;60235;52.234;5.186;2022-07-23T06:53:01;6.05;;;1.10;;
72301;SDS011;60235;52.234;5.186;2022-07-23T06:55:27;3.17;;;1.00;;
72301;SDS011;60235;52.234;5.186;2022-07-23T06:57:53;2.08;;;0.82;;
72301;SDS011;60235;52.234;5.186;2022-07-23T07:00:19;3.20;;;0.90;;
72301;SDS011;60235;52.234;5.186;2022-07-23T07:02:45;5.65;;;1.23;;
72301;SDS011;60235;52.234;5.186;2022-07-23T07:05:11;3.90;;;1.00;;
72301;SDS011;60235;52.234;5.186;2022-07-23T07:07:37;4.72;;;1.27;;
72301;SDS011;60235;52.234;5.186;2022-07-23T07:10:03;5.43;;;1.20;;
72301;SDS011;60235;52.234;5.186;2022-07-23T07:12:29;4.95;;;1.30;;
72301;SDS011;60235;52.234;5.186;2022-07-23T07:14:55;5.80;;;1.17;;
72301;SDS011;60235;52.234;5.186;2022-07-23T07:17:22;4.22;;;1.15;;
72301;SDS011;60235;52.234;5.186;2022-07-23T07:19:48;6.28;;;1.23;;
72301;SDS011;60235;52.234;5.186;2022-07-23T07:22:14;5.20;;;1.20;;
72301;SDS011;60235;52.234;5.186;2022-07-23T07:24:40;4.47;;;1.17;;
72301;SDS011;60235;52.234;5.186;2022-07-23T07:27:06;5.50;;;1.10;;
72301;SDS011;60235;52.234;5.186;2022-07-23T07:29:32;7.78;;;1.20;;
72301;SDS011;60235;52.234;5.186;2022-07-23T07:31:58;4.63;;;1.23;;
72301;SDS011;60235;52.234;5.186;2022-07-23T07:34:24;4.53;;;0.77;;
72301;SDS011;60235;52.234;5.186;2022-07-23T07:36:50;5.20;;;1.20;;
72301;SDS011;60235;52.234;5.186;2022-07-23T07:39:16;3.17;;;0.88;;
72301;SDS011;60235;52.234;5.186;2022-07-23T07:41:42;5.03;;;1.00;;
72301;SDS011;60235;52.234;5.186;2022-07-23T07:44:08;6.20;;;1.10;;
72301;SDS011;60235;52.234;5.186;2022-07-23T07:46:34;4.60;;;1.15;;
72301;SDS011;60235;52.234;5.186;2022-07-23T07:49:00;7.05;;;1.48;;
72301;SDS011;60235;52.234;5.186;2022-07-23T07:51:26;3.28;;;0.88;;
72301;SDS011;60235;52.234;5.186;2022-07-23T07:53:53;4.20;;;1.00;;
72301;SDS011;60235;52.234;5.186;2022-07-23T07:56:19;6.10;;;1.20;;
72301;SDS011;60235;52.234;5.186;2022-07-23T07:58:45;5.82;;;1.13;;
72301;SDS011;60235;52.234;5.186;2022-07-23T08:01:11;4.80;;;1.00;;
72301;SDS011;60235;52.234;5.186;2022-07-23T08:03:37;6.78;;;1.35;;
72301;SDS011;60235;52.234;5.186;2022-07-23T08:06:03;3.05;;;0.98;;
72301;SDS011;60235;52.234;5.186;2022-07-23T08:08:29;5.25;;;1.00;;
72301;SDS011;60235;52.234;5.186;2022-07-23T08:10:55;3.50;;;0.93;;
72301;SDS011;60235;52.234;5.186;2022-07-23T08:13:21;3.88;;;1.15;;
72301;SDS011;60235;52.234;5.186;2022-07-23T08:15:47;2.35;;;0.80;;
72301;SDS011;60235;52.234;5.186;2022-07-23T08:18:13;7.45;;;1.23;;
72301;SDS011;60235;52.234;5.186;2022-07-23T08:20:39;3.90;;;0.93;;
72301;SDS011;60235;52.234;5.186;2022-07-23T08:23:06;2.53;;;0.90;;
72301;SDS011;60235;52.234;5.186;2022-07-23T08:25:37;5.25;;;0.95;;
72301;SDS011;60235;52.234;5.186;2022-07-23T08:28:04;3.50;;;0.90;;
72301;SDS011;60235;52.234;5.186;2022-07-23T08:30:30;4.32;;;1.00;;
72301;SDS011;60235;52.234;5.186;2022-07-23T08:33:00;7.25;;;1.10;;
72301;SDS011;60235;52.234;5.186;2022-07-23T08:35:28;3.65;;;1.00;;
72301;SDS011;60235;52.234;5.186;2022-07-23T08:37:55;3.17;;;0.90;;
72301;SDS011;60235;52.234;5.186;2022-07-23T08:40:21;3.90;;;1.00;;
72301;SDS011;60235;52.234;5.186;2022-07-23T08:42:48;4.68;;;1.17;;
72301;SDS011;60235;52.234;5.186;2022-07-23T08:45:15;2.65;;;0.80;;
72301;SDS011;60235;52.234;5.186;2022-07-23T08:47:41;3.72;;;1.00;;
72301;SDS011;60235;52.234;5.186;2022-07-23T08:50:09;5.03;;;0.93;;
72301;SDS011;60235;52.234;5.186;2022-07-23T08:52:35;4.25;;;0.90;;
72301;SDS011;60235;52.234;5.186;2022-07-23T08:55:02;3.25;;;1.00;;
72301;SDS011;60235;52.234;5.186;2022-07-23T08:57:28;2.97;;;0.80;;
72301;SDS011;60235;52.234;5.186;2022-07-23T08:59:54;5.55;;;1.05;;
72301;SDS011;60235;52.234;5.186;2022-07-23T09:02:20;4.10;;;0.95;;
72301;SDS011;60235;52.234;5.186;2022-07-23T09:04:46;4.85;;;1.42;;
72301;SDS011;60235;52.234;5.186;2022-07-23T09:07:12;5.70;;;1.10;;
72301;SDS011;60235;52.234;5.186;2022-07-23T09:09:38;4.50;;;1.00;;
72301;SDS011;60235;52.234;5.186;2022-07-23T09:12:08;2.88;;;0.82;;
72301;SDS011;60235;52.234;5.186;2022-07-23T09:17:13;4.32;;;0.98;;
72301;SDS011;60235;52.234;5.186;2022-07-23T09:19:40;3.80;;;0.80;;
72301;SDS011;60235;52.234;5.186;2022-07-23T09:22:25;3.20;;;0.90;;
72301;SDS011;60235;52.234;5.186;2022-07-23T09:30:11;4.72;;;0.90;;
72301;SDS011;60235;52.234;5.186;2022-07-23T09:32:38;5.72;;;1.00;;
72301;SDS011;60235;52.234;5.186;2022-07-23T09:35:04;4.65;;;1.10;;
72301;SDS011;60235;52.234;5.186;2022-07-23T09:37:30;6.40;;;1.10;;
72301;SDS011;60235;52.234;5.186;2022-07-23T09:40:03;4.95;;;0.93;;
72301;SDS011;60235;52.234;5.186;2022-07-23T09:42:29;3.95;;;1.00;;
72301;SDS011;60235;52.234;5.186;2022-07-23T09:44:56;3.78;;;0.90;;
72301;SDS011;60235;52.234;5.186;2022-07-23T09:47:23;4.50;;;0.85;;
72301;SDS011;60235;52.234;5.186;2022-07-23T09:52:26;3.25;;;0.90;;
72301;SDS011;60235;52.234;5.186;2022-07-23T09:54:57;4.47;;;1.05;;
72301;SDS011;60235;52.234;5.186;2022-07-23T09:57:24;2.47;;;0.75;;
72301;SDS011;60235;52.234;5.186;2022-07-23T09:59:52;3.90;;;0.85;;
72301;SDS011;60235;52.234;5.186;2022-07-23T10:02:18;7.38;;;1.98;;
72301;SDS011;60235;52.234;5.186;2022-07-23T10:04:45;3.92;;;1.30;;
72301;SDS011;60235;52.234;5.186;2022-07-23T10:07:11;5.30;;;1.10;;
72301;SDS011;60235;52.234;5.186;2022-07-23T10:09:39;5.25;;;1.30;;
72301;SDS011;60235;52.234;5.186;2022-07-23T10:12:10;5.35;;;1.25;;
72301;SDS011;60235;52.234;5.186;2022-07-23T10:14:37;6.50;;;1.20;;
72301;SDS011;60235;52.234;5.186;2022-07-23T10:17:04;5.22;;;1.20;;
72301;SDS011;60235;52.234;5.186;2022-07-23T10:19:30;4.30;;;1.20;;
72301;SDS011;60235;52.234;5.186;2022-07-23T10:22:00;4.28;;;1.30;;
72301;SDS011;60235;52.234;5.186;2022-07-23T10:39:24;2.97;;;0.90;;
72301;SDS011;60235;52.234;5.186;2022-07-23T10:41:52;5.40;;;1.10;;
72301;SDS011;60235;52.234;5.186;2022-07-23T10:44:18;4.25;;;0.88;;
72301;SDS011;60235;52.234;5.186;2022-07-23T10:46:58;3.53;;;1.00;;
72301;SDS011;60235;52.234;5.186;2022-07-23T10:49:30;5.65;;;1.10;;
72301;SDS011;60235;52.234;5.186;2022-07-23T10:54:41;4.25;;;1.27;;
72301;SDS011;60235;52.234;5.186;2022-07-23T10:57:08;3.47;;;1.00;;
72301;SDS011;60235;52.234;5.186;2022-07-23T11:02:22;3.92;;;1.10;;
72301;SDS011;60235;52.234;5.186;2022-07-23T11:04:49;3.80;;;1.20;;
72301;SDS011;60235;52.234;5.186;2022-07-23T11:07:16;4.03;;;1.05;;
72301;SDS011;60235;52.234;5.186;2022-07-23T11:09:42;4.93;;;1.25;;
72301;SDS011;60235;52.234;5.186;2022-07-23T11:17:25;4.03;;;1.17;;
72301;SDS011;60235;52.234;5.186;2022-07-23T11:22:40;5.60;;;1.27;;
72301;SDS011;60235;52.234;5.186;2022-07-23T11:25:06;5.28;;;1.02;;
72301;SDS011;60235;52.234;5.186;2022-07-23T11:30:04;5.22;;;1.27;;
72301;SDS011;60235;52.234;5.186;2022-07-23T11:32:31;8.32;;;1.45;;
72301;SDS011;60235;52.234;5.186;2022-07-23T11:34:59;7.20;;;1.35;;
72301;SDS011;60235;52.234;5.186;2022-07-23T11:37:33;3.25;;;1.15;;
72301;SDS011;60235;52.234;5.186;2022-07-23T11:40:00;3.85;;;1.25;;
72301;SDS011;60235;52.234;5.186;2022-07-23T11:42:26;4.95;;;1.40;;
72301;SDS011;60235;52.234;5.186;2022-07-23T11:44:52;3.97;;;1.02;;
72301;SDS011;60235;52.234;5.186;2022-07-23T11:47:23;4.28;;;1.33;;
72301;SDS011;60235;52.234;5.186;2022-07-23T11:49:56;4.00;;;1.17;;
72301;SDS011;60235;52.234;5.186;2022-07-23T11:52:22;3.92;;;1.20;;
72301;SDS011;60235;52.234;5.186;2022-07-23T11:57:44;4.40;;;1.50;;
72301;SDS011;60235;52.234;5.186;2022-07-23T12:00:17;4.20;;;1.30;;
72301;SDS011;60235;52.234;5.186;2022-07-23T12:02:47;4.68;;;1.02;;
72301;SDS011;60235;52.234;5.186;2022-07-23T12:05:14;6.40;;;1.27;;
72301;SDS011;60235;52.234;5.186;2022-07-23T12:07:41;4.70;;;1.27;;
72301;SDS011;60235;52.234;5.186;2022-07-23T12:10:18;5.30;;;1.48;;
72301;SDS011;60235;52.234;5.186;2022-07-23T12:13:06;5.30;;;1.50;;
72301;SDS011;60235;52.234;5.186;2022-07-23T12:15:32;6.50;;;1.35;;
72301;SDS011;60235;52.234;5.186;2022-07-23T12:18:00;4.57;;;1.42;;
72301;SDS011;60235;52.234;5.186;2022-07-23T12:20:35;4.72;;;1.42;;
72301;SDS011;60235;52.234;5.186;2022-07-23T12:23:02;5.97;;;1.75;;
72301;SDS011;60235;52.234;5.186;2022-07-23T12:25:30;4.53;;;1.40;;
72301;SDS011;60235;52.234;5.186;2022-07-23T12:28:09;6.00;;;1.50;;
72301;SDS011;60235;52.234;5.186;2022-07-23T12:30:39;4.18;;;1.60;;
72301;SDS011;60235;52.234;5.186;2022-07-23T12:33:06;5.43;;;1.45;;
72301;SDS011;60235;52.234;5.186;2022-07-23T12:35:33;7.43;;;1.35;;
72301;SDS011;60235;52.234;5.186;2022-07-23T12:38:01;4.20;;;1.52;;
72301;SDS011;60235;52.234;5.186;2022-07-23T12:40:32;6.03;;;1.63;;
72301;SDS011;60235;52.234;5.186;2022-07-23T12:42:59;4.82;;;1.58;;
72301;SDS011;60235;52.234;5.186;2022-07-23T12:45:26;4.97;;;1.38;;
72301;SDS011;60235;52.234;5.186;2022-07-23T12:47:53;5.63;;;1.63;;
72301;SDS011;60235;52.234;5.186;2022-07-23T12:50:34;5.22;;;1.40;;
72301;SDS011;60235;52.234;5.186;2022-07-23T12:53:07;4.82;;;1.65;;
72301;SDS011;60235;52.234;5.186;2022-07-23T12:55:34;4.40;;;1.48;;
72301;SDS011;60235;52.234;5.186;2022-07-23T12:58:13;4.70;;;1.70;;
72301;SDS011;60235;52.234;5.186;2022-07-23T13:03:36;5.43;;;1.70;;
72301;SDS011;60235;52.234;5.186;2022-07-23T13:06:03;6.95;;;1.75;;
72301;SDS011;60235;52.234;5.186;2022-07-23T13:08:30;4.78;;;1.70;;
72301;SDS011;60235;52.234;5.186;2022-07-23T13:10:57;5.78;;;1.80;;
72301;SDS011;60235;52.234;5.186;2022-07-23T13:13:24;5.30;;;2.10;;
72301;SDS011;60235;52.234;5.186;2022-07-23T13:15:51;6.22;;;1.92;;
72301;SDS011;60235;52.234;5.186;2022-07-23T13:18:18;5.07;;;1.95;;
72301;SDS011;60235;52.234;5.186;2022-07-23T13:20:45;5.65;;;1.80;;
72301;SDS011;60235;52.234;5.186;2022-07-23T13:23:11;6.45;;;1.88;;
72301;SDS011;60235;52.234;5.186;2022-07-23T13:25:37;6.68;;;1.80;;
72301;SDS011;60235;52.234;5.186;2022-07-23T13:28:03;6.32;;;1.98;;
72301;SDS011;60235;52.234;5.186;2022-07-23T13:30:29;6.53;;;2.20;;
72301;SDS011;60235;52.234;5.186;2022-07-23T13:32:56;6.80;;;1.85;;
72301;SDS011;60235;52.234;5.186;2022-07-23T13:35:22;6.43;;;2.38;;
72301;SDS011;60235;52.234;5.186;2022-07-23T13:37:48;7.05;;;1.90;;
72301;SDS011;60235;52.234;5.186;2022-07-23T13:40:14;5.80;;;2.25;;
72301;SDS011;60235;52.234;5.186;2022-07-23T13:42:40;6.25;;;2.03;;
72301;SDS011;60235;52.234;5.186;2022-07-23T13:45:06;6.63;;;2.10;;
72301;SDS011;60235;52.234;5.186;2022-07-23T13:47:32;6.10;;;2.35;;
72301;SDS011;60235;52.234;5.186;2022-07-23T13:49:58;5.13;;;2.00;;
72301;SDS011;60235;52.234;5.186;2022-07-23T13:52:24;6.75;;;1.80;;
72301;SDS011;60235;52.234;5.186;2022-07-23T13:54:50;6.45;;;1.90;;
72301;SDS011;60235;52.234;5.186;2022-07-23T13:57:16;5.22;;;2.13;;
72301;SDS011;60235;52.234;5.186;2022-07-23T13:59:43;5.80;;;2.10;;
72301;SDS011;60235;52.234;5.186;2022-07-23T14:02:09;5.03;;;2.13;;
72301;SDS011;60235;52.234;5.186;2022-07-23T14:04:35;6.05;;;2.13;;
72301;SDS011;60235;52.234;5.186;2022-07-23T14:07:01;6.32;;;2.42;;
72301;SDS011;60235;52.234;5.186;2022-07-23T14:09:27;6.47;;;2.85;;
72301;SDS011;60235;52.234;5.186;2022-07-23T14:11:54;5.40;;;1.90;;
72301;SDS011;60235;52.234;5.186;2022-07-23T14:14:20;5.30;;;2.10;;
72301;SDS011;60235;52.234;5.186;2022-07-23T14:16:46;5.18;;;1.98;;
72301;SDS011;60235;52.234;5.186;2022-07-23T14:19:12;5.15;;;1.80;;
72301;SDS011;60235;52.234;5.186;2022-07-23T14:21:38;6.43;;;1.98;;
72301;SDS011;60235;52.234;5.186;2022-07-23T14:24:04;5.90;;;1.83;;
72301;SDS011;60235;52.234;5.186;2022-07-23T14:26:30;5.57;;;1.88;;
72301;SDS011;60235;52.234;5.186;2022-07-23T14:28:56;6.30;;;2.15;;
72301;SDS011;60235;52.234;5.186;2022-07-23T14:31:22;4.05;;;1.80;;
72301;SDS011;60235;52.234;5.186;2022-07-23T14:33:48;6.60;;;2.05;;
72301;SDS011;60235;52.234;5.186;2022-07-23T14:36:14;4.65;;;1.90;;
72301;SDS011;60235;52.234;5.186;2022-07-23T14:38:41;5.30;;;1.98;;
72301;SDS011;60235;52.234;5.186;2022-07-23T14:41:07;6.97;;;2.03;;
72301;SDS011;60235;52.234;5.186;2022-07-23T14:43:33;5.63;;;1.83;;
72301;SDS011;60235;52.234;5.186;2022-07-23T14:45:59;6.40;;;1.83;;
72301;SDS011;60235;52.234;5.186;2022-07-23T14:48:25;6.70;;;1.73;;
72301;SDS011;60235;52.234;5.186;2022-07-23T14:50:51;6.43;;;1.90;;
72301;SDS011;60235;52.234;5.186;2022-07-23T14:53:18;5.97;;;2.00;;
72301;SDS011;60235;52.234;5.186;2022-07-23T14:55:44;5.40;;;1.83;;
72301;SDS011;60235;52.234;5.186;2022-07-23T14:58:10;5.38;;;1.70;;
72301;SDS011;60235;52.234;5.186;2022-07-23T15:00:36;5.10;;;1.83;;
72301;SDS011;60235;52.234;5.186;2022-07-23T15:03:02;5.15;;;1.90;;
72301;SDS011;60235;52.234;5.186;2022-07-23T15:05:28;6.18;;;2.03;;
72301;SDS011;60235;52.234;5.186;2022-07-23T15:07:54;6.50;;;2.08;;
72301;SDS011;60235;52.234;5.186;2022-07-23T15:10:20;6.32;;;2.17;;
72301;SDS011;60235;52.234;5.186;2022-07-23T15:12:46;5.32;;;1.98;;
72301;SDS011;60235;52.234;5.186;2022-07-23T15:15:13;5.43;;;2.05;;
72301;SDS011;60235;52.234;5.186;2022-07-23T15:17:39;5.40;;;1.77;;
72301;SDS011;60235;52.234;5.186;2022-07-23T15:20:05;5.55;;;2.13;;
72301;SDS011;60235;52.234;5.186;2022-07-23T15:22:31;6.40;;;2.33;;
72301;SDS011;60235;52.234;5.186;2022-07-23T15:24:58;5.63;;;2.40;;
72301;SDS011;60235;52.234;5.186;2022-07-23T15:27:24;6.43;;;2.30;;
72301;SDS011;60235;52.234;5.186;2022-07-23T15:29:50;6.65;;;2.50;;
72301;SDS011;60235;52.234;5.186;2022-07-23T15:32:16;5.93;;;2.38;;
72301;SDS011;60235;52.234;5.186;2022-07-23T15:34:42;5.70;;;2.17;;